East Coast - Cape St. Francis and south: Past 24 Hour Conditions

 

St. John's Int'l Airport

07:30 AM NDT 30 August 2014
This table is a summary of hourly weather conditions for the past 24 hours.
Date / Time
(NDT)
Wind(knots) Conditions Visibility(km) Pressure(kPa) Air tempC) Relative humidity(%) Dew pointC)
30 August 2014
7:30 W 10 Mainly Sunny 24 102.0 7 89 6
6:30 W 13 Sunny 24 101.9 6 93 5
5:30 WNW 13 Clear 24 101.9 6 94 5
4:30 WNW 10 Clear 24 101.8 6 96 5
3:30 WNW 8 Clear 24 101.7 6 95 5
2:30 NNW 10 Partly Cloudy 24 101.6 7 89 6
1:30 NNW 11 gust 17 Mainly Clear 24 101.6 8 86 5
0:30 NNW 11 gust 17 Partly Cloudy 24 101.5 8 83 5
29 August 2014
23:30 NNW 11 Partly Cloudy 24 101.5 9 82 6
22:30 NNW 14 Cloudy 24 101.4 9 76 5
21:30 NNW 17 gust 26 Cloudy 24 101.3 9 73 5
20:30 N 15 gust 26 Mostly Cloudy 24 101.2 9 84 7
19:30 N 15 gust 23 Mostly Cloudy 24 101.1 10 78 6
18:30 N 17 Cloudy 24 101.0 10 79 6
17:30 N 19 gust 28 Mostly Cloudy 24 100.9 10 80 7
16:30 N 22 gust 31 Mostly Cloudy 24 100.8 10 82 7
15:30 N 20 gust 29 Mostly Cloudy 24 100.7 10 89 8
14:30 N 24 gust 33 Mostly Cloudy 24 100.5 10 93 9
13:30 NNE 24 gust 33 Light Rain 16 100.4 10 97 10
12:30 NNE 22 gust 34 Light Rain 5 100.4 10 98 10
11:30 NNE 22 gust 36 Light Rain 5 100.4 10 99 10
10:30 NNE 19 gust 31 Light Rain 4 100.3 10 99 10
9:30 NNE 25 gust 35 Light Rain 2 100.2 10 100 10
8:30 NNE 24 gust 33 Drizzle 0.8 100.2 11 100 11
7:30 NE 20 gust 33 Light Drizzle 0.4 100.2 11 100 11
 
Map of Atlantic - Newfoundland marine weather areas Southwestern Grand Banks - 44138 Banquereau - 44139 Tail of the Bank - 44140 Nickerson Bank - 44251 Northeast Burgeo Bank - 44255 Blanc-Sablon Airport Cap Whittle Chevery Natashquan Airport Heath Point Miscou Island Grand Étang Ingonish Beach North Mountain St.Paul Island J.A. Douglas McCurdy Sydney Airport Charlottetown Airport East Point North Cape Argentia Bonavista Burgeo Cape Race Corner Brook Daniel's Harbour Englee Ferolle Point La Scie Port aux Basques Rocky Harbour Sagona Island St. Anthony Airport St. John's Int'l Airport St. Lawrence Stephenville Airport Twillingate Winterland Wreckhouse Cartwright Airport Mary's Harbour Grates Cove Pool's Island Marticot Island Long Pond Îles de la Madeleine Airport
Legend: buoyBuoy land stationLand Station